Time;durP1;ratioP1;P1;durP2;ratioP2;P2;SDS_P1;SDS_P2;PMS_P1;PMS_P2;Temp;Humidity;BMP_temperature;BMP_pressure;BME280_temperature;BME280_humidity;BME280_pressure;Samples;Min_cycle;Max_cycle;Signal;HPM_P1;HPM_P2
2022/11/17 00:02:04;;;;;;;48.28;35.63;;;;;;;11.79;70.25;98481.50;5070785;28;20100;-83
2022/11/17 00:04:29;;;;;;;58.45;39.58;;;;;;;11.87;70.39;98499.75;5052688;28;20408;-83
2022/11/17 00:06:58;;;;;;;56.30;40.33;;;;;;;11.89;69.91;98504.84;5052545;28;20052;-83
2022/11/17 00:09:24;;;;;;;47.92;34.33;;;;;;;11.15;70.01;98395.16;5070505;28;20440;-83
2022/11/17 00:14:35;;;;;;;43.55;32.40;;;;;;;11.36;70.57;98421.28;5074024;28;20094;-83
2022/11/17 00:17:09;;;;;;;39.13;26.55;;;;;;;11.23;70.35;98402.03;5074070;28;20020;-83
2022/11/17 00:22:18;;;;;;;32.33;25.55;;;;;;;11.48;70.71;98439.94;5074529;28;20089;-83
2022/11/17 00:24:44;;;;;;;32.72;26.20;;;;;;;11.61;70.09;98468.13;5055867;28;20025;-83
2022/11/17 00:27:09;;;;;;;33.63;26.05;;;;;;;11.32;70.72;98413.97;5073908;28;20459;-83
2022/11/17 00:29:35;;;;;;;42.58;32.60;;;;;;;11.79;70.59;98492.06;5073833;28;20025;-82
2022/11/17 00:34:46;;;;;;;46.22;34.38;;;;;;;11.07;70.69;98382.97;5059958;28;20037;-83
2022/11/17 00:37:13;;;;;;;43.40;33.83;;;;;;;11.06;70.46;98364.69;5073612;28;20028;-83
2022/11/17 00:39:38;;;;;;;41.15;31.98;;;;;;;11.73;71.31;98467.25;5073675;28;20024;-83
2022/11/17 00:42:04;;;;;;;45.72;36.63;;;;;;;11.68;70.91;98461.78;5073697;28;20107;-83
2022/11/17 00:44:29;;;;;;;45.50;34.85;;;;;;;11.36;70.80;98405.41;5073709;28;20009;-83
2022/11/17 00:46:55;;;;;;;50.70;38.03;;;;;;;11.71;71.18;98482.50;5055590;28;20409;-83
2022/11/17 00:49:24;;;;;;;45.63;33.85;;;;;;;11.49;71.37;98424.88;5073460;28;20024;-83
2022/11/17 00:51:58;;;;;;;43.30;34.45;;;;;;;11.74;71.05;98468.06;5073436;28;20512;-83
2022/11/17 00:54:24;;;;;;;42.83;34.17;;;;;;;11.43;70.85;98426.53;5073370;28;20524;-84
2022/11/17 00:56:49;;;;;;;44.75;35.45;;;;;;;11.18;70.83;98362.22;5055535;28;20107;-83
2022/11/17 00:59:15;;;;;;;45.75;34.70;;;;;;;11.18;71.30;98368.31;5055511;28;20017;-84
2022/11/17 01:01:42;;;;;;;44.00;34.30;;;;;;;11.60;71.72;98422.38;5055396;28;20433;-83
2022/11/17 01:04:08;;;;;;;47.10;37.05;;;;;;;11.67;71.42;98430.28;5055365;28;20059;-83
2022/11/17 01:06:39;;;;;;;45.58;35.50;;;;;;;11.80;71.34;98453.22;5055354;28;20107;-83
2022/11/17 01:09:25;;;;;;;51.08;34.28;;;;;;;11.74;71.72;98449.53;5066503;28;20040;-83
2022/11/17 01:11:51;;;;;;;47.33;34.42;;;;;;;11.18;71.75;98360.38;5072563;28;20031;-83
2022/11/17 01:14:21;;;;;;;44.08;34.25;;;;;;;11.60;72.24;98438.22;5072877;28;20024;-83
2022/11/17 01:16:47;;;;;;;46.38;35.42;;;;;;;10.97;71.86;98365.94;5073314;28;20405;-83
2022/11/17 01:19:14;;;;;;;44.35;34.67;;;;;;;11.72;72.05;98441.81;5071700;28;20035;-83
2022/11/17 01:21:39;;;;;;;49.03;35.50;;;;;;;11.36;72.03;98394.84;5072509;28;20020;-83
2022/11/17 01:24:05;;;;;;;46.97;34.85;;;;;;;11.22;72.37;98361.59;5072454;28;20077;-83
2022/11/17 01:26:33;;;;;;;47.05;36.00;;;;;;;11.77;72.00;98417.38;5072535;28;20028;-83
2022/11/17 01:29:00;;;;;;;48.08;35.45;;;;;;;11.78;72.37;98419.03;5072574;28;20017;-83
2022/11/17 01:31:29;;;;;;;47.80;35.05;;;;;;;11.46;72.03;98368.78;5071534;28;20028;-82
2022/11/17 01:33:55;;;;;;;53.22;36.58;;;;;;;11.14;72.06;98299.22;5071388;28;20024;-83
2022/11/17 01:36:24;;;;;;;44.70;33.50;;;;;;;11.73;72.11;98398.50;5072785;28;20031;-83
2022/11/17 01:38:49;;;;;;;44.10;34.88;;;;;;;11.76;72.08;98402.56;5072493;28;20094;-83
2022/11/17 01:41:26;;;;;;;47.10;34.53;;;;;;;11.75;72.33;98398.28;5071438;28;20020;-83
2022/11/17 01:43:53;;;;;;;42.42;31.50;;;;;;;11.51;72.41;98357.56;5071324;28;20052;-83
2022/11/17 01:46:18;;;;;;;43.50;32.08;;;;;;;11.74;72.34;98380.78;5071299;28;20024;-83
2022/11/17 01:48:45;;;;;;;48.35;34.10;;;;;;;11.70;72.87;98391.00;5072492;28;20027;-83
2022/11/17 01:51:12;;;;;;;43.38;33.33;;;;;;;11.31;72.48;98327.81;5072385;28;20028;-83
2022/11/17 01:53:38;;;;;;;44.15;34.08;;;;;;;10.30;72.78;98195.63;5072374;28;20023;-83
2022/11/17 01:56:09;;;;;;;44.28;34.15;;;;;;;10.99;72.60;98272.28;5070963;28;20037;-83
2022/11/17 01:58:45;;;;;;;39.70;31.40;;;;;;;11.46;72.39;98333.59;5072479;28;20044;-83
2022/11/17 02:01:11;;;;;;;43.17;33.47;;;;;;;11.24;72.52;98295.31;5072024;28;20389;-83
2022/11/17 02:03:38;;;;;;;43.22;34.78;;;;;;;11.08;72.35;98270.19;5070810;28;20073;-83
2022/11/17 02:06:11;;;;;;;44.80;33.95;;;;;;;11.12;72.58;98279.31;5072000;28;20111;-84
2022/11/17 02:08:40;;;;;;;47.15;35.70;;;;;;;11.63;72.72;98358.50;5071763;28;20121;-84
2022/11/17 02:11:11;;;;;;;49.55;37.13;;;;;;;11.38;72.55;98332.03;5071891;28;20055;-83
2022/11/17 02:13:39;;;;;;;49.67;37.38;;;;;;;11.07;72.59;98265.94;5053718;28;20025;-84
2022/11/17 02:16:08;;;;;;;49.67;36.97;;;;;;;11.07;72.74;98266.75;5071897;28;20032;-84
2022/11/17 02:18:34;;;;;;;53.42;38.65;;;;;;;11.03;72.61;98265.53;5071695;28;20162;-84
2022/11/17 02:21:09;;;;;;;52.70;39.70;;;;;;;11.31;72.71;98288.97;5071812;28;20099;-84
2022/11/17 02:23:59;;;;;;;52.60;40.53;;;;;;;11.73;72.70;98364.13;5071678;28;20020;-83
2022/11/17 02:26:53;;;;;;;55.20;41.83;;;;;;;11.75;72.42;98358.63;5071713;28;20489;-84
2022/11/17 02:29:47;;;;;;;52.65;38.00;;;;;;;11.72;72.85;98353.75;5071772;28;20078;-83
2022/11/17 02:32:22;;;;;;;55.08;38.67;;;;;;;11.48;72.50;98320.16;5053707;28;20020;-84
2022/11/17 02:35:04;;;;;;;51.17;37.88;;;;;;;11.07;72.50;98258.00;5053443;28;20028;-83
2022/11/17 02:37:31;;;;;;;54.40;39.17;;;;;;;11.05;72.60;98252.13;5053517;28;20386;-84
2022/11/17 02:40:12;;;;;;;56.25;41.50;;;;;;;11.49;72.84;98316.50;5053606;28;20115;-84
2022/11/17 02:46:01;;;;;;;62.42;44.92;;;;;;;11.69;72.36;98340.97;5071572;28;20085;-82
2022/11/17 02:48:34;;;;;;;50.63;36.75;;;;;;;11.32;72.48;98287.94;5053240;28;20023;-84
2022/11/17 02:51:01;;;;;;;51.78;38.45;;;;;;;11.05;72.28;98249.47;5053447;28;20031;-83
2022/11/17 02:53:28;;;;;;;61.33;45.25;;;;;;;11.48;72.82;98330.75;5071196;28;20039;-83
2022/11/17 02:55:54;;;;;;;59.90;43.13;;;;;;;10.96;72.44;98262.13;5053388;28;20089;-84
2022/11/17 02:58:20;;;;;;;55.25;39.47;;;;;;;11.68;72.53;98344.63;5053356;28;20024;-83
2022/11/17 03:01:13;;;;;;;54.75;41.70;;;;;;;11.67;72.84;98345.66;5053370;28;20027;-83
2022/11/17 03:04:04;;;;;;;56.80;40.92;;;;;;;11.63;72.79;98342.63;5053341;28;20497;-83
2022/11/17 03:06:34;;;;;;;65.27;45.00;;;;;;;11.59;72.76;98344.09;5071105;28;20035;-84
2022/11/17 03:09:20;;;;;;;56.33;39.70;;;;;;;11.55;72.28;98340.25;5071022;28;20286;-84
2022/11/17 03:11:55;;;;;;;50.22;37.15;;;;;;;10.93;72.50;98249.34;5071097;28;20020;-83
2022/11/17 03:14:31;;;;;;;54.17;40.17;;;;;;;11.31;72.44;98293.44;5070946;28;20071;-83
2022/11/17 03:17:29;;;;;;;56.47;40.78;;;;;;;11.29;72.46;98285.72;5071214;28;20021;-83
2022/11/17 03:20:22;;;;;;;56.05;41.22;;;;;;;10.77;72.62;98195.22;5053433;28;20048;-83
2022/11/17 03:23:04;;;;;;;61.92;43.92;;;;;;;11.57;72.17;98326.81;5052891;28;20467;-83
2022/11/17 03:25:33;;;;;;;48.08;35.65;;;;;;;10.92;72.57;98231.88;5053139;28;20489;-83
2022/11/17 03:28:02;;;;;;;51.15;36.95;;;;;;;11.50;72.49;98326.88;5070818;28;20051;-83
2022/11/17 03:30:29;;;;;;;55.28;39.67;;;;;;;11.32;72.45;98297.72;5071017;28;20413;-83
2022/11/17 03:33:04;;;;;;;54.28;40.00;;;;;;;11.27;72.46;98285.13;5070936;28;20099;-83
2022/11/17 03:35:34;;;;;;;52.00;37.58;;;;;;;11.55;72.35;98345.53;5070978;28;20099;-83
2022/11/17 03:38:07;;;;;;;55.50;39.80;;;;;;;11.41;72.41;98331.59;5070612;28;20044;-83
2022/11/17 03:40:34;;;;;;;51.72;37.60;;;;;;;11.31;73.20;98293.44;5071196;28;20020;-83
2022/11/17 03:43:06;;;;;;;49.85;37.13;;;;;;;11.37;72.58;98316.38;5052958;28;20016;-83
2022/11/17 03:45:36;;;;;;;54.25;39.10;;;;;;;10.59;72.90;98192.47;5053626;28;20031;-83
2022/11/17 03:48:39;;;;;;;59.05;42.90;;;;;;;11.35;72.94;98311.31;5074672;28;20028;-83
2022/11/17 03:51:08;;;;;;;59.30;41.95;;;;;;;11.36;72.92;98307.66;5074621;28;20016;-83
2022/11/17 03:53:35;;;;;;;60.25;44.72;;;;;;;11.42;72.54;98312.06;5074602;28;20017;-84
2022/11/17 03:56:10;;;;;;;53.80;38.55;;;;;;;11.27;73.41;98282.50;5056624;28;20077;-84
2022/11/17 03:58:42;;;;;;;51.67;38.03;;;;;;;11.08;73.00;98264.91;5056950;28;20074;-83
2022/11/17 04:01:08;;;;;;;51.17;37.75;;;;;;;11.46;72.58;98312.47;5074485;28;20059;-83
2022/11/17 04:03:34;;;;;;;50.75;39.33;;;;;;;10.97;72.97;98241.81;5056622;28;20028;-83
2022/11/17 04:06:00;;;;;;;52.08;38.67;;;;;;;11.46;72.93;98318.56;5074268;28;20024;-83
2022/11/17 04:08:29;;;;;;;54.42;41.80;;;;;;;11.44;73.17;98328.53;5062202;28;20049;-83
2022/11/17 04:16:23;;;;;;;55.25;40.65;;;;;;;10.96;72.96;98269.25;5074366;28;20031;-83
2022/11/17 04:18:50;;;;;;;55.75;40.67;;;;;;;10.75;72.56;98238.69;5072716;28;20028;-83
2022/11/17 04:21:16;;;;;;;66.28;46.33;;;;;;;11.32;73.11;98319.66;5074293;28;20408;-83
2022/11/17 04:23:41;;;;;;;57.22;41.83;;;;;;;11.35;72.68;98321.88;5074059;28;20412;-83
2022/11/17 04:28:52;;;;;;;60.92;44.78;;;;;;;11.00;73.40;98279.16;5074247;28;20115;-84
2022/11/17 04:31:19;;;;;;;56.63;42.35;;;;;;;11.26;72.37;98312.59;5074260;28;20107;-83
2022/11/17 04:33:52;;;;;;;56.00;40.53;;;;;;;11.30;72.81;98321.72;5073683;28;20024;-84
2022/11/17 04:36:19;;;;;;;65.45;46.80;;;;;;;11.28;72.91;98310.53;5073754;28;20059;-83
2022/11/17 04:38:47;;;;;;;60.15;44.83;;;;;;;10.97;72.54;98263.75;5073659;28;20027;-83
2022/11/17 04:44:00;;;;;;;64.30;43.63;;;;;;;11.24;72.77;98306.69;5073714;28;20028;-84
2022/11/17 04:46:29;;;;;;;60.75;44.28;;;;;;;10.98;72.99;98265.38;5072416;28;20021;-84
2022/11/17 04:48:57;;;;;;;61.50;46.65;;;;;;;11.34;72.41;98327.38;5072286;28;20027;-83
2022/11/17 04:51:23;;;;;;;81.63;56.40;;;;;;;11.14;72.01;98312.41;5073751;28;20056;-83
2022/11/17 04:53:49;;;;;;;64.97;46.45;;;;;;;11.31;72.02;98325.97;5072160;28;20025;-83
2022/11/17 04:56:15;;;;;;;65.28;47.13;;;;;;;11.20;72.34;98294.13;5073328;28;20027;-83
2022/11/17 04:58:41;;;;;;;65.53;49.10;;;;;;;11.29;71.94;98308.72;5073424;28;20024;-83
2022/11/17 05:01:14;;;;;;;60.85;45.10;;;;;;;10.36;72.09;98190.31;5072023;28;20020;-83
2022/11/17 05:03:57;;;;;;;69.18;51.25;;;;;;;10.64;72.76;98221.69;5073315;28;20512;-83
2022/11/17 05:06:28;;;;;;;69.82;48.13;;;;;;;11.11;73.00;98299.63;5073402;28;20086;-83
2022/11/17 05:08:55;;;;;;;71.30;53.75;;;;;;;11.12;72.45;98300.44;5073151;28;20150;-84
2022/11/17 05:14:10;;;;;;;69.82;50.78;;;;;;;11.11;72.67;98304.91;5072907;28;20085;-83
2022/11/17 05:19:23;;;;;;;68.90;50.08;;;;;;;11.11;72.64;98310.19;5073376;28;20089;-84
2022/11/17 05:21:49;;;;;;;71.82;50.53;;;;;;;11.15;72.45;98297.41;5054931;28;20028;-83
2022/11/17 05:24:15;;;;;;;77.38;56.13;;;;;;;11.17;72.62;98305.13;5072802;28;20481;-83
2022/11/17 05:26:42;;;;;;;85.25;61.25;;;;;;;11.17;72.27;98284.78;5072908;28;20031;-83
2022/11/17 05:29:09;;;;;;;73.28;51.58;;;;;;;10.42;73.15;98178.16;5054913;28;20020;-83
2022/11/17 05:31:34;;;;;;;69.85;50.78;;;;;;;10.73;72.58;98236.25;5072789;28;20493;-84
2022/11/17 05:34:01;;;;;;;75.43;52.05;;;;;;;10.85;72.50;98241.69;5054551;28;20024;-83
2022/11/17 05:36:27;;;;;;;72.55;51.97;;;;;;;11.27;72.04;98297.53;5072536;28;20063;-83
2022/11/17 05:38:53;;;;;;;79.45;58.47;;;;;;;10.57;73.01;98183.97;5072388;28;20028;-83
2022/11/17 05:41:18;;;;;;;72.20;51.45;;;;;;;10.57;72.70;98196.34;5072491;28;20016;-84
2022/11/17 05:43:44;;;;;;;67.22;49.83;;;;;;;10.60;72.68;98174.81;5072405;28;20027;-83
2022/11/17 05:46:10;;;;;;;71.57;49.47;;;;;;;11.29;72.29;98285.72;5054392;28;20031;-83
2022/11/17 05:48:36;;;;;;;68.95;50.53;;;;;;;10.97;72.25;98234.69;5072252;28;20028;-83
2022/11/17 05:51:02;;;;;;;67.43;48.83;;;;;;;10.85;72.04;98198.63;5072294;28;20039;-83
2022/11/17 05:53:28;;;;;;;66.13;45.70;;;;;;;11.44;71.83;98280.94;5072260;28;20102;-84
2022/11/17 05:56:17;;;;;;;69.35;44.25;;;;;;;11.00;71.79;98204.41;5072254;28;20023;-83
2022/11/17 05:58:45;;;;;;;67.75;48.55;;;;;;;10.95;72.28;98191.84;5054226;28;20028;-83
2022/11/17 06:01:12;;;;;;;66.85;47.25;;;;;;;10.98;71.97;98185.34;5072042;28;20020;-83
2022/11/17 06:03:42;;;;;;;66.72;49.42;;;;;;;11.27;71.94;98234.94;5072092;28;20044;-83
2022/11/17 06:06:08;;;;;;;61.58;44.40;;;;;;;11.58;71.95;98280.84;5071964;28;20020;-83
2022/11/17 06:08:34;;;;;;;68.45;49.20;;;;;;;11.26;71.80;98227.22;5060285;28;20047;-83
2022/11/17 06:11:00;;;;;;;66.95;49.22;;;;;;;11.69;71.59;98282.81;5070696;28;20047;-83
2022/11/17 06:13:27;;;;;;;63.58;44.30;;;;;;;11.04;71.28;98201.13;5071933;28;20462;-83
2022/11/17 06:15:56;;;;;;;61.70;45.42;;;;;;;11.28;71.28;98218.06;5072073;28;20040;-83
2022/11/17 06:18:36;;;;;;;63.95;46.80;;;;;;;10.95;71.51;98172.56;5071800;28;20413;-83
2022/11/17 06:21:01;;;;;;;62.10;44.38;;;;;;;11.23;71.48;98256.72;5070271;28;20024;-83
2022/11/17 06:23:30;;;;;;;65.78;45.47;;;;;;;10.99;71.49;98189.59;5071559;28;20021;-84
2022/11/17 06:25:57;;;;;;;57.58;45.42;;;;;;;10.72;71.38;98133.50;5071024;28;20028;-84
2022/11/17 06:28:23;;;;;;;58.33;42.30;;;;;;;11.02;71.75;98176.78;5071417;28;20032;-83
2022/11/17 06:30:49;;;;;;;55.13;41.53;;;;;;;11.59;71.46;98267.41;5071265;28;20088;-83
2022/11/17 06:33:18;;;;;;;58.70;43.13;;;;;;;11.82;71.56;98287.19;5070254;28;20028;-84
2022/11/17 06:35:46;;;;;;;55.28;40.60;;;;;;;11.83;71.38;98297.56;5070637;28;20028;-83
2022/11/17 06:38:12;;;;;;;57.05;40.35;;;;;;;11.87;71.80;98301.41;5070667;28;20016;-83
2022/11/17 06:40:37;;;;;;;66.93;47.53;;;;;;;11.65;71.16;98261.28;5070538;28;20032;-82
2022/11/17 06:43:05;;;;;;;59.55;45.35;;;;;;;11.51;71.47;98230.69;5070199;28;20031;-83
2022/11/17 06:46:00;;;;;;;68.00;49.90;;;;;;;11.98;71.45;98284.84;5070381;28;20024;-83
2022/11/17 06:48:26;;;;;;;59.70;43.08;;;;;;;11.30;71.10;98165.00;5062960;28;20048;-83
2022/11/17 06:50:54;;;;;;;63.95;46.47;;;;;;;12.09;71.08;98281.47;5070378;28;20508;-82
2022/11/17 06:53:22;;;;;;;64.90;46.63;;;;;;;12.11;70.91;98283.91;5071152;28;20025;-83
2022/11/17 06:58:32;;;;;;;61.22;45.40;;;;;;;12.18;70.73;98283.84;5068507;28;20039;-82
2022/11/17 07:01:08;;;;;;;60.47;43.88;;;;;;;12.17;70.74;98298.91;5066352;28;20143;-83
2022/11/17 07:03:35;;;;;;;62.58;44.40;;;;;;;12.00;70.73;98258.97;5069974;28;20529;-82
2022/11/17 07:06:03;;;;;;;72.05;50.25;;;;;;;11.94;70.96;98251.91;5070831;28;20109;-83
2022/11/17 07:08:29;;;;;;;64.28;44.97;;;;;;;12.13;70.87;98281.03;5070773;28;20052;-82
2022/11/17 07:10:54;;;;;;;62.88;46.72;;;;;;;12.18;70.57;98275.91;5070702;28;20024;-83
2022/11/17 07:13:21;;;;;;;61.42;42.35;;;;;;;12.19;71.18;98280.16;5071117;28;20615;-84
2022/11/17 07:15:48;;;;;;;65.15;45.72;;;;;;;11.87;70.97;98210.66;5052877;28;20025;-83
2022/11/17 07:18:19;;;;;;;69.55;47.97;;;;;;;12.32;70.72;98277.38;5070850;28;20074;-83
2022/11/17 07:20:45;;;;;;;70.97;49.85;;;;;;;11.50;70.31;98130.47;5072155;28;20029;-82
2022/11/17 07:23:11;;;;;;;59.42;46.58;;;;;;;12.39;70.69;98251.66;5071193;28;20021;-83
2022/11/17 07:25:37;;;;;;;60.72;43.85;;;;;;;12.00;70.34;98190.22;5073767;28;20047;-83
2022/11/17 07:28:03;;;;;;;57.85;44.88;;;;;;;12.16;70.25;98211.81;5062633;28;20029;-83
2022/11/17 07:30:29;;;;;;;60.10;42.45;;;;;;;12.59;70.64;98270.75;5074815;28;20090;-84
2022/11/17 07:32:56;;;;;;;64.22;48.90;;;;;;;11.77;69.97;98122.06;5056940;28;20424;-83
2022/11/17 07:35:21;;;;;;;61.38;43.55;;;;;;;12.67;70.27;98257.25;5074654;28;20021;-84
2022/11/17 07:37:47;;;;;;;54.92;40.95;;;;;;;12.30;69.82;98200.03;5073844;28;20047;-83
2022/11/17 07:40:12;;;;;;;60.90;42.28;;;;;;;12.20;70.04;98173.28;5073441;28;20020;-83
2022/11/17 07:42:38;;;;;;;50.58;36.80;;;;;;;12.12;69.50;98163.00;5074319;28;20085;-84
2022/11/17 07:45:04;;;;;;;52.53;38.60;;;;;;;12.18;69.66;98178.00;5074486;28;20099;-84
2022/11/17 07:47:29;;;;;;;51.38;38.70;;;;;;;12.49;69.57;98236.06;5056153;28;20103;-82
2022/11/17 07:49:55;;;;;;;56.67;42.13;;;;;;;11.99;69.73;98153.41;5085098;28;20511;-83
2022/11/17 07:52:20;;;;;;;58.97;43.20;;;;;;;12.13;69.52;98193.72;5070846;28;20025;-83
2022/11/17 07:54:46;;;;;;;47.63;35.33;;;;;;;12.00;70.09;98195.50;5065829;28;20070;-83
2022/11/17 07:57:11;;;;;;;58.00;40.92;;;;;;;12.30;70.07;98263.56;5072089;28;20530;-84
2022/11/17 07:59:36;;;;;;;53.15;40.92;;;;;;;12.14;70.08;98227.91;5056582;28;20103;-84
2022/11/17 08:02:02;;;;;;;53.78;41.03;;;;;;;12.32;70.49;98272.09;5054745;28;20020;-83
2022/11/17 08:04:27;;;;;;;53.65;38.55;;;;;;;12.01;70.57;98220.91;5071453;28;20028;-83
2022/11/17 08:06:53;;;;;;;57.80;43.53;;;;;;;11.97;70.81;98221.56;5072506;28;20027;-83
2022/11/17 08:09:18;;;;;;;55.17;42.30;;;;;;;12.00;70.64;98245.75;5071924;28;20426;-83
2022/11/17 08:11:44;;;;;;;50.30;39.78;;;;;;;11.44;71.50;98135.59;5072558;28;20028;-84
2022/11/17 08:14:09;;;;;;;55.75;39.75;;;;;;;11.95;71.19;98227.09;5043434;28;20013;-83
2022/11/17 08:16:35;;;;;;;53.58;40.42;;;;;;;11.92;71.43;98226.72;5066880;28;20031;-82
2022/11/17 08:19:00;;;;;;;54.63;42.63;;;;;;;12.00;71.47;98245.75;5075397;28;20023;-83
2022/11/17 08:21:25;;;;;;;58.22;44.15;;;;;;;12.00;71.55;98251.03;5056239;28;20052;-82
2022/11/17 08:23:53;;;;;;;58.15;44.00;;;;;;;12.20;71.60;98271.19;5073630;28;20481;-83
2022/11/17 08:26:19;;;;;;;58.00;43.35;;;;;;;12.35;71.95;98285.69;5045368;28;20024;-84
2022/11/17 08:28:46;;;;;;;64.65;44.85;;;;;;;11.75;71.96;98207.91;5064445;28;20120;-84
2022/11/17 08:31:11;;;;;;;54.90;40.70;;;;;;;12.25;72.09;98274.00;5071226;28;20074;-84
2022/11/17 08:33:37;;;;;;;54.65;39.25;;;;;;;11.63;72.17;98194.59;5067482;28;20021;-84
2022/11/17 08:36:03;;;;;;;59.45;44.55;;;;;;;12.30;72.49;98280.25;5070517;28;20029;-83
2022/11/17 08:38:29;;;;;;;59.50;45.08;;;;;;;12.02;72.18;98243.69;5070971;28;20052;-83
2022/11/17 08:41:04;;;;;;;59.63;44.45;;;;;;;11.22;72.34;98142.31;5071072;28;20016;-84
2022/11/17 08:43:30;;;;;;;57.35;44.67;;;;;;;10.69;72.53;98031.00;5061777;28;20086;-83
2022/11/17 08:45:56;;;;;;;54.75;42.28;;;;;;;11.88;72.56;98225.50;5070334;28;20497;-83
2022/11/17 08:48:21;;;;;;;60.67;44.35;;;;;;;11.95;72.49;98252.72;5062226;28;20056;-83
2022/11/17 08:50:47;;;;;;;54.38;40.45;;;;;;;12.02;73.02;98243.69;5068874;28;20016;-83
2022/11/17 08:53:14;;;;;;;60.83;43.75;;;;;;;12.27;72.72;98285.97;5059540;28;20085;-83
2022/11/17 08:55:40;;;;;;;60.45;43.83;;;;;;;12.02;72.78;98267.50;5052798;28;20497;-83
2022/11/17 08:58:05;;;;;;;56.35;42.97;;;;;;;10.63;72.90;98048.50;5057342;28;20115;-84
2022/11/17 09:00:31;;;;;;;54.13;40.78;;;;;;;10.83;73.04;98074.75;5063923;28;20024;-84
2022/11/17 09:02:56;;;;;;;57.22;42.97;;;;;;;12.11;72.96;98312.19;5052892;28;20021;-83
2022/11/17 09:05:23;;;;;;;58.67;41.58;;;;;;;11.12;73.67;98141.94;5056086;28;20104;-83
2022/11/17 09:07:49;;;;;;;56.65;41.97;;;;;;;11.95;73.40;98287.94;5056080;28;20608;-83
2022/11/17 09:10:14;;;;;;;69.20;45.08;;;;;;;11.49;73.24;98200.22;5064897;28;20103;-83
2022/11/17 09:12:40;;;;;;;56.50;41.35;;;;;;;10.36;73.57;98037.31;5070156;28;20063;-85
2022/11/17 09:15:06;;;;;;;55.00;42.60;;;;;;;11.38;74.10;98210.47;5067135;28;20566;-83
2022/11/17 09:17:32;;;;;;;63.67;46.00;;;;;;;11.46;74.10;98202.25;5072031;28;20078;-82
2022/11/17 09:19:57;;;;;;;64.88;45.17;;;;;;;11.53;73.88;98223.34;5072591;28;20025;-83
2022/11/17 09:22:22;;;;;;;61.58;45.25;;;;;;;11.44;74.21;98259.81;5070924;28;20530;-83
2022/11/17 09:24:48;;;;;;;59.25;44.38;;;;;;;11.08;74.27;98190.94;5070600;28;20100;-82
2022/11/17 09:27:13;;;;;;;57.63;44.13;;;;;;;12.08;74.17;98330.13;5071840;28;20086;-83
2022/11/17 09:29:39;;;;;;;61.20;44.40;;;;;;;11.39;74.38;98230.56;5069422;28;20408;-82
2022/11/17 09:32:04;;;;;;;59.75;40.85;;;;;;;11.34;74.88;98230.41;5067265;28;20103;-82
2022/11/17 09:34:30;;;;;;;65.47;44.35;;;;;;;11.82;74.88;98330.31;5066511;28;20029;-83
2022/11/17 09:36:55;;;;;;;62.60;44.35;;;;;;;11.98;75.09;98369.50;5051061;28;20028;-82
2022/11/17 09:39:20;;;;;;;62.33;41.20;;;;;;;10.62;75.42;98139.25;5062594;28;20021;-83
2022/11/17 09:41:49;;;;;;;58.17;42.80;;;;;;;10.61;75.32;98124.44;5069158;28;20024;-81
2022/11/17 09:44:30;;;;;;;65.20;45.97;;;;;;;12.00;75.49;98351.56;5068841;28;20028;-83
2022/11/17 09:47:05;;;;;;;64.57;43.97;;;;;;;11.50;75.70;98292.50;5070618;28;20500;-83
2022/11/17 09:49:42;;;;;;;64.20;46.58;;;;;;;12.00;75.80;98350.75;5071191;28;20402;-83
2022/11/17 09:52:13;;;;;;;67.97;47.08;;;;;;;11.98;76.48;98364.19;5070426;28;20028;-83
2022/11/17 09:54:51;;;;;;;60.25;43.40;;;;;;;11.44;76.30;98299.44;5068839;28;20021;-82
2022/11/17 09:57:42;;;;;;;58.55;42.10;;;;;;;12.03;76.88;98376.78;5071885;28;20024;-82
2022/11/17 10:00:21;;;;;;;61.72;43.85;;;;;;;11.98;76.28;98385.38;5065197;28;20033;-81
2022/11/17 10:02:47;;;;;;;60.05;42.55;;;;;;;11.95;76.60;98387.63;5062456;28;20094;-82
2022/11/17 10:05:39;;;;;;;68.40;47.70;;;;;;;11.92;76.91;98378.28;5069627;28;20082;-82
2022/11/17 10:08:14;;;;;;;66.13;47.80;;;;;;;11.83;76.77;98384.03;5063915;28;20598;-81
2022/11/17 10:10:49;;;;;;;70.15;48.70;;;;;;;11.15;76.92;98271.00;5071855;28;20077;-82
2022/11/17 10:13:34;;;;;;;69.18;48.60;;;;;;;11.07;76.89;98258.00;5044400;28;20113;-82
2022/11/17 10:16:03;;;;;;;68.05;46.58;;;;;;;11.16;77.14;98264.69;5048605;28;20083;-82
2022/11/17 10:18:35;;;;;;;67.28;46.33;;;;;;;11.76;77.62;98347.81;5045535;28;20108;-82
2022/11/17 10:21:01;;;;;;;;;;;;;;;11.86;78.90;98387.06;5048500;28;20027;-83
2022/11/17 10:23:34;;;;;;;63.38;46.05;;;;;;;10.74;77.92;98206.19;5049050;28;20399;-83
2022/11/17 10:26:05;;;;;;;71.15;46.88;;;;;;;11.95;77.61;98392.91;5046159;28;20494;-84
2022/11/17 10:28:32;;;;;;;72.25;48.53;;;;;;;11.39;77.44;98299.28;5057816;28;20032;-83
2022/11/17 10:31:00;;;;;;;69.90;47.42;;;;;;;12.01;77.46;98376.19;5071239;28;20497;-83
2022/11/17 10:33:43;;;;;;;75.28;51.22;;;;;;;11.30;77.75;98268.84;5042817;28;20052;-84
2022/11/17 10:36:19;;;;;;;63.83;45.30;;;;;;;12.01;77.66;98366.41;5041024;28;20021;-84
2022/11/17 10:38:53;;;;;;;69.72;47.97;;;;;;;11.41;77.28;98262.06;5042710;28;20025;-84
2022/11/17 10:41:27;;;;;;;75.28;53.53;;;;;;;11.80;77.95;98315.69;5059927;28;20046;-84
2022/11/17 10:44:01;;;;;;;72.47;50.35;;;;;;;11.98;77.83;98323.72;5033267;28;20497;-83
2022/11/17 10:46:27;;;;;;;61.22;45.20;;;;;;;11.45;77.28;98245.56;5050220;28;20468;-84
2022/11/17 10:49:03;;;;;;;66.05;46.67;;;;;;;11.59;77.68;98279.84;5013535;28;20022;-84
2022/11/17 10:51:31;;;;;;;70.32;51.28;;;;;;;12.18;77.42;98319.03;5042465;28;20061;-83
2022/11/17 10:54:15;;;;;;;67.32;46.63;;;;;;;12.17;77.76;98313.97;5034564;28;20120;-83
2022/11/17 10:56:48;;;;;;;71.25;50.72;;;;;;;12.18;77.62;98308.47;5030062;28;20036;-83
2022/11/17 10:59:20;;;;;;;71.20;47.25;;;;;;;12.12;77.42;98300.59;5050621;28;20104;-84
2022/11/17 11:01:50;;;;;;;71.25;48.38;;;;;;;11.69;77.46;98216.69;5054062;28;20026;-84
2022/11/17 11:04:34;;;;;;;72.18;49.67;;;;;;;12.25;77.70;98301.28;5027883;28;20021;-84
2022/11/17 11:07:13;;;;;;;72.07;49.83;;;;;;;12.28;77.53;98300.03;5052982;28;20071;-83
2022/11/17 11:09:44;;;;;;;69.40;49.17;;;;;;;11.95;77.43;98239.50;5067616;28;20540;-83
2022/11/17 11:12:15;;;;;;;64.33;48.50;;;;;;;11.88;76.89;98236.88;5069697;28;20024;-83
2022/11/17 11:14:47;;;;;;;65.23;47.40;;;;;;;12.19;77.27;98257.16;5066924;28;20033;-83
2022/11/17 11:17:15;;;;;;;58.75;45.20;;;;;;;12.52;76.67;98288.56;5069140;28;20028;-84
2022/11/17 11:19:44;;;;;;;58.95;42.55;;;;;;;12.62;76.78;98293.34;5065621;28;20025;-83
2022/11/17 11:22:27;;;;;;;54.10;41.22;;;;;;;12.67;77.02;98280.28;5070573;28;20029;-83
2022/11/17 11:25:07;;;;;;;57.33;42.90;;;;;;;12.72;77.15;98297.13;5069928;28;20631;-83
2022/11/17 11:27:59;;;;;;;66.97;48.25;;;;;;;12.49;76.97;98267.81;5059941;28;20029;-82
2022/11/17 11:30:25;;;;;;;;;;;;;;;12.71;77.54;98310.56;5044119;28;20037;-82
2022/11/17 11:33:00;;;;;;;48.28;38.63;;;;;;;12.81;76.32;98331.25;5069011;28;19912;-82
2022/11/17 11:35:31;;;;;;;53.45;39.78;;;;;;;12.87;75.83;98317.09;5066697;28;20048;-84
2022/11/17 11:38:10;;;;;;;63.67;45.92;;;;;;;12.56;76.11;98292.38;5050002;28;20063;-81
2022/11/17 11:40:40;;;;;;;58.30;43.75;;;;;;;12.94;76.51;98315.19;5050789;28;20540;-82
2022/11/17 11:43:24;;;;;;;52.47;43.13;;;;;;;12.97;76.58;98306.78;5060939;28;20025;-81
2022/11/17 11:46:27;;;;;;;66.93;50.90;;;;;;;13.03;76.26;98316.50;5050422;28;20025;-82
2022/11/17 11:49:03;;;;;;;52.15;41.08;;;;;;;12.90;76.07;98288.34;5059004;28;20097;-82
2022/11/17 11:51:36;;;;;;;68.50;54.88;;;;;;;12.63;75.69;98266.66;5055443;28;20120;-82
2022/11/17 11:54:04;;;;;;;76.32;61.60;;;;;;;13.19;75.90;98313.25;5051876;28;20036;-81
2022/11/17 11:56:34;;;;;;;69.15;52.95;;;;;;;12.81;76.08;98244.63;5050278;28;20045;-81
2022/11/17 11:59:09;;;;;;;77.68;56.42;;;;;;;12.63;76.35;98216.34;5061485;28;20026;-81
2022/11/17 12:02:05;;;;;;;65.43;48.13;;;;;;;12.64;76.74;98223.28;5049512;28;20032;-83